sensor_id;sensor_type;location;lat;lon;timestamp;P1;durP1;ratioP1;P2;durP2;ratioP2
15679;SDS011;15488;48.114;11.532;2022-07-17T00:00:26;5.87;;;5.23;;
15679;SDS011;15488;48.114;11.532;2022-07-17T00:02:54;5.67;;;4.73;;
15679;SDS011;15488;48.114;11.532;2022-07-17T00:05:23;5.13;;;4.27;;
15679;SDS011;15488;48.114;11.532;2022-07-17T00:07:50;4.90;;;4.40;;
15679;SDS011;15488;48.114;11.532;2022-07-17T00:10:18;4.87;;;4.37;;
15679;SDS011;15488;48.114;11.532;2022-07-17T00:12:45;4.97;;;4.50;;
15679;SDS011;15488;48.114;11.532;2022-07-17T00:15:13;4.73;;;4.33;;
15679;SDS011;15488;48.114;11.532;2022-07-17T00:17:40;4.60;;;4.20;;
15679;SDS011;15488;48.114;11.532;2022-07-17T00:20:08;4.87;;;4.40;;
15679;SDS011;15488;48.114;11.532;2022-07-17T00:22:38;4.97;;;4.33;;
15679;SDS011;15488;48.114;11.532;2022-07-17T00:25:08;4.77;;;4.27;;
15679;SDS011;15488;48.114;11.532;2022-07-17T00:27:36;4.67;;;4.20;;
15679;SDS011;15488;48.114;11.532;2022-07-17T00:30:05;4.40;;;4.00;;
15679;SDS011;15488;48.114;11.532;2022-07-17T00:32:33;5.10;;;4.57;;
15679;SDS011;15488;48.114;11.532;2022-07-17T00:35:01;4.60;;;3.90;;
15679;SDS011;15488;48.114;11.532;2022-07-17T00:37:29;5.13;;;4.63;;
15679;SDS011;15488;48.114;11.532;2022-07-17T00:39:58;5.03;;;4.53;;
15679;SDS011;15488;48.114;11.532;2022-07-17T00:42:26;5.13;;;4.63;;
15679;SDS011;15488;48.114;11.532;2022-07-17T00:44:53;6.60;;;4.47;;
15679;SDS011;15488;48.114;11.532;2022-07-17T00:47:22;5.27;;;4.60;;
15679;SDS011;15488;48.114;11.532;2022-07-17T00:49:49;5.03;;;4.53;;
15679;SDS011;15488;48.114;11.532;2022-07-17T00:52:17;5.87;;;4.80;;
15679;SDS011;15488;48.114;11.532;2022-07-17T00:54:45;6.57;;;4.63;;
15679;SDS011;15488;48.114;11.532;2022-07-17T00:57:15;5.60;;;5.03;;
15679;SDS011;15488;48.114;11.532;2022-07-17T00:59:43;4.87;;;4.47;;
15679;SDS011;15488;48.114;11.532;2022-07-17T01:02:11;4.67;;;4.27;;
15679;SDS011;15488;48.114;11.532;2022-07-17T01:04:39;5.23;;;4.40;;
15679;SDS011;15488;48.114;11.532;2022-07-17T01:07:07;6.27;;;4.73;;
15679;SDS011;15488;48.114;11.532;2022-07-17T01:09:35;5.23;;;4.37;;
15679;SDS011;15488;48.114;11.532;2022-07-17T01:12:02;5.10;;;4.60;;
15679;SDS011;15488;48.114;11.532;2022-07-17T01:14:33;5.40;;;4.90;;
15679;SDS011;15488;48.114;11.532;2022-07-17T01:17:00;7.03;;;4.90;;
15679;SDS011;15488;48.114;11.532;2022-07-17T01:19:28;6.90;;;4.83;;
15679;SDS011;15488;48.114;11.532;2022-07-17T01:21:57;4.90;;;4.40;;
15679;SDS011;15488;48.114;11.532;2022-07-17T01:24:25;5.37;;;4.07;;
15679;SDS011;15488;48.114;11.532;2022-07-17T01:26:52;4.70;;;4.10;;
15679;SDS011;15488;48.114;11.532;2022-07-17T01:29:20;5.17;;;4.50;;
15679;SDS011;15488;48.114;11.532;2022-07-17T01:31:47;5.37;;;3.90;;
15679;SDS011;15488;48.114;11.532;2022-07-17T01:34:14;4.73;;;3.83;;
15679;SDS011;15488;48.114;11.532;2022-07-17T01:36:42;4.57;;;3.60;;
15679;SDS011;15488;48.114;11.532;2022-07-17T01:39:11;4.00;;;3.60;;
15679;SDS011;15488;48.114;11.532;2022-07-17T01:41:38;4.23;;;3.83;;
15679;SDS011;15488;48.114;11.532;2022-07-17T01:44:06;5.13;;;3.73;;
15679;SDS011;15488;48.114;11.532;2022-07-17T01:46:33;4.37;;;3.70;;
15679;SDS011;15488;48.114;11.532;2022-07-17T01:49:01;4.20;;;3.80;;
15679;SDS011;15488;48.114;11.532;2022-07-17T01:51:28;3.97;;;3.63;;
15679;SDS011;15488;48.114;11.532;2022-07-17T01:53:56;4.20;;;3.80;;
15679;SDS011;15488;48.114;11.532;2022-07-17T01:56:25;4.37;;;3.60;;
15679;SDS011;15488;48.114;11.532;2022-07-17T01:58:52;3.90;;;3.50;;
15679;SDS011;15488;48.114;11.532;2022-07-17T02:01:20;4.37;;;3.50;;
15679;SDS011;15488;48.114;11.532;2022-07-17T02:03:47;3.87;;;3.57;;
15679;SDS011;15488;48.114;11.532;2022-07-17T02:06:15;4.73;;;3.90;;
15679;SDS011;15488;48.114;11.532;2022-07-17T02:08:43;4.70;;;3.73;;
15679;SDS011;15488;48.114;11.532;2022-07-17T02:11:10;4.40;;;3.77;;
15679;SDS011;15488;48.114;11.532;2022-07-17T02:13:39;5.17;;;3.43;;
15679;SDS011;15488;48.114;11.532;2022-07-17T02:16:06;4.20;;;3.70;;
15679;SDS011;15488;48.114;11.532;2022-07-17T02:18:34;4.60;;;3.50;;
15679;SDS011;15488;48.114;11.532;2022-07-17T02:21:01;3.80;;;3.20;;
15679;SDS011;15488;48.114;11.532;2022-07-17T02:23:29;3.57;;;3.27;;
15679;SDS011;15488;48.114;11.532;2022-07-17T02:25:57;3.83;;;3.43;;
15679;SDS011;15488;48.114;11.532;2022-07-17T02:28:24;4.13;;;3.57;;
15679;SDS011;15488;48.114;11.532;2022-07-17T02:30:53;3.97;;;3.47;;
15679;SDS011;15488;48.114;11.532;2022-07-17T02:33:21;5.10;;;3.50;;
15679;SDS011;15488;48.114;11.532;2022-07-17T02:35:48;4.30;;;3.70;;
15679;SDS011;15488;48.114;11.532;2022-07-17T02:38:16;4.07;;;3.67;;
15679;SDS011;15488;48.114;11.532;2022-07-17T02:40:43;3.70;;;3.40;;
15679;SDS011;15488;48.114;11.532;2022-07-17T02:43:11;3.90;;;3.50;;
15679;SDS011;15488;48.114;11.532;2022-07-17T02:45:38;3.53;;;3.23;;
15679;SDS011;15488;48.114;11.532;2022-07-17T02:48:07;3.50;;;3.20;;
15679;SDS011;15488;48.114;11.532;2022-07-17T02:50:35;3.90;;;3.40;;
15679;SDS011;15488;48.114;11.532;2022-07-17T02:53:02;4.00;;;3.47;;
15679;SDS011;15488;48.114;11.532;2022-07-17T02:55:30;3.90;;;3.40;;
15679;SDS011;15488;48.114;11.532;2022-07-17T02:57:57;4.40;;;3.57;;
15679;SDS011;15488;48.114;11.532;2022-07-17T03:00:25;5.00;;;3.80;;
15679;SDS011;15488;48.114;11.532;2022-07-17T03:02:52;4.03;;;3.50;;
15679;SDS011;15488;48.114;11.532;2022-07-17T03:05:22;3.50;;;3.20;;
15679;SDS011;15488;48.114;11.532;2022-07-17T03:07:49;4.47;;;3.70;;
15679;SDS011;15488;48.114;11.532;2022-07-17T03:10:16;3.70;;;3.40;;
15679;SDS011;15488;48.114;11.532;2022-07-17T03:12:44;4.30;;;3.90;;
15679;SDS011;15488;48.114;11.532;2022-07-17T03:15:11;4.77;;;3.50;;
15679;SDS011;15488;48.114;11.532;2022-07-17T03:17:39;5.53;;;3.20;;
15679;SDS011;15488;48.114;11.532;2022-07-17T03:20:07;3.97;;;3.23;;
15679;SDS011;15488;48.114;11.532;2022-07-17T03:22:37;4.03;;;3.33;;
15679;SDS011;15488;48.114;11.532;2022-07-17T03:25:05;4.80;;;3.50;;
15679;SDS011;15488;48.114;11.532;2022-07-17T03:27:33;3.90;;;3.00;;
15679;SDS011;15488;48.114;11.532;2022-07-17T03:30:01;5.40;;;3.50;;
15679;SDS011;15488;48.114;11.532;2022-07-17T03:32:28;4.07;;;3.37;;
15679;SDS011;15488;48.114;11.532;2022-07-17T03:34:56;4.03;;;3.63;;
15679;SDS011;15488;48.114;11.532;2022-07-17T03:37:23;3.90;;;3.30;;
15679;SDS011;15488;48.114;11.532;2022-07-17T03:39:53;4.20;;;3.10;;
15679;SDS011;15488;48.114;11.532;2022-07-17T03:42:21;4.70;;;3.37;;
15679;SDS011;15488;48.114;11.532;2022-07-17T03:44:48;3.60;;;3.30;;
15679;SDS011;15488;48.114;11.532;2022-07-17T03:47:16;3.63;;;3.30;;
15679;SDS011;15488;48.114;11.532;2022-07-17T03:49:43;3.93;;;3.57;;
15679;SDS011;15488;48.114;11.532;2022-07-17T03:52:11;4.30;;;3.50;;
15679;SDS011;15488;48.114;11.532;2022-07-17T03:54:38;4.10;;;3.50;;
15679;SDS011;15488;48.114;11.532;2022-07-17T03:57:07;3.90;;;3.50;;
15679;SDS011;15488;48.114;11.532;2022-07-17T03:59:34;3.73;;;3.43;;
15679;SDS011;15488;48.114;11.532;2022-07-17T04:02:02;3.40;;;3.10;;
15679;SDS011;15488;48.114;11.532;2022-07-17T04:04:29;4.60;;;3.27;;
15679;SDS011;15488;48.114;11.532;2022-07-17T04:06:57;4.03;;;3.50;;
15679;SDS011;15488;48.114;11.532;2022-07-17T04:09:24;3.40;;;3.10;;
15679;SDS011;15488;48.114;11.532;2022-07-17T04:11:52;3.80;;;3.37;;
15679;SDS011;15488;48.114;11.532;2022-07-17T04:14:20;4.43;;;3.40;;
15679;SDS011;15488;48.114;11.532;2022-07-17T04:16:48;3.63;;;3.30;;
15679;SDS011;15488;48.114;11.532;2022-07-17T04:19:15;4.97;;;3.10;;
15679;SDS011;15488;48.114;11.532;2022-07-17T04:21:43;3.83;;;3.23;;
15679;SDS011;15488;48.114;11.532;2022-07-17T04:24:10;3.40;;;3.10;;
15679;SDS011;15488;48.114;11.532;2022-07-17T04:26:38;3.93;;;3.50;;
15679;SDS011;15488;48.114;11.532;2022-07-17T04:29:05;3.87;;;3.37;;
15679;SDS011;15488;48.114;11.532;2022-07-17T04:31:34;3.57;;;3.27;;
15679;SDS011;15488;48.114;11.532;2022-07-17T04:34:02;3.93;;;3.30;;
15679;SDS011;15488;48.114;11.532;2022-07-17T04:36:29;3.70;;;3.40;;
15679;SDS011;15488;48.114;11.532;2022-07-17T04:38:57;4.57;;;3.80;;
15679;SDS011;15488;48.114;11.532;2022-07-17T04:41:24;4.67;;;3.83;;
15679;SDS011;15488;48.114;11.532;2022-07-17T04:43:51;4.90;;;4.20;;
15679;SDS011;15488;48.114;11.532;2022-07-17T04:46:19;5.13;;;4.67;;
15679;SDS011;15488;48.114;11.532;2022-07-17T04:48:48;6.07;;;5.57;;
15679;SDS011;15488;48.114;11.532;2022-07-17T04:51:15;7.73;;;6.87;;
15679;SDS011;15488;48.114;11.532;2022-07-17T04:53:43;10.20;;;9.20;;
15679;SDS011;15488;48.114;11.532;2022-07-17T04:56:10;11.93;;;10.63;;
15679;SDS011;15488;48.114;11.532;2022-07-17T04:58:37;9.83;;;8.80;;
15679;SDS011;15488;48.114;11.532;2022-07-17T05:01:05;8.17;;;7.37;;
15679;SDS011;15488;48.114;11.532;2022-07-17T05:03:32;7.97;;;7.27;;
15679;SDS011;15488;48.114;11.532;2022-07-17T05:06:01;7.00;;;6.30;;
15679;SDS011;15488;48.114;11.532;2022-07-17T05:08:29;6.53;;;5.93;;
15679;SDS011;15488;48.114;11.532;2022-07-17T05:10:56;5.73;;;5.17;;
15679;SDS011;15488;48.114;11.532;2022-07-17T05:13:24;5.83;;;5.23;;
15679;SDS011;15488;48.114;11.532;2022-07-17T05:15:51;5.77;;;5.17;;
15679;SDS011;15488;48.114;11.532;2022-07-17T05:18:19;6.20;;;5.60;;
15679;SDS011;15488;48.114;11.532;2022-07-17T05:20:46;6.50;;;4.83;;
15679;SDS011;15488;48.114;11.532;2022-07-17T05:23:15;5.57;;;4.73;;
15679;SDS011;15488;48.114;11.532;2022-07-17T05:25:43;5.90;;;5.23;;
15679;SDS011;15488;48.114;11.532;2022-07-17T05:28:10;6.20;;;5.60;;
15679;SDS011;15488;48.114;11.532;2022-07-17T05:30:38;6.77;;;5.73;;
15679;SDS011;15488;48.114;11.532;2022-07-17T05:33:05;7.07;;;5.97;;
15679;SDS011;15488;48.114;11.532;2022-07-17T05:35:33;6.27;;;5.20;;
15679;SDS011;15488;48.114;11.532;2022-07-17T05:38:00;6.43;;;5.50;;
15679;SDS011;15488;48.114;11.532;2022-07-17T05:40:29;6.03;;;5.43;;
15679;SDS011;15488;48.114;11.532;2022-07-17T05:42:57;6.33;;;5.30;;
15679;SDS011;15488;48.114;11.532;2022-07-17T05:45:24;5.70;;;5.20;;
15679;SDS011;15488;48.114;11.532;2022-07-17T05:47:51;6.57;;;5.07;;
15679;SDS011;15488;48.114;11.532;2022-07-17T05:50:19;4.70;;;4.30;;
15679;SDS011;15488;48.114;11.532;2022-07-17T05:52:46;5.13;;;4.10;;
15679;SDS011;15488;48.114;11.532;2022-07-17T05:55:14;4.73;;;4.03;;
15679;SDS011;15488;48.114;11.532;2022-07-17T05:57:43;4.50;;;4.10;;
15679;SDS011;15488;48.114;11.532;2022-07-17T06:00:10;4.70;;;4.20;;
15679;SDS011;15488;48.114;11.532;2022-07-17T06:02:38;5.70;;;4.17;;
15679;SDS011;15488;48.114;11.532;2022-07-17T06:05:06;4.60;;;3.90;;
15679;SDS011;15488;48.114;11.532;2022-07-17T06:07:34;4.43;;;4.03;;
15679;SDS011;15488;48.114;11.532;2022-07-17T06:10:01;4.50;;;4.10;;
15679;SDS011;15488;48.114;11.532;2022-07-17T06:12:29;4.37;;;3.97;;
15679;SDS011;15488;48.114;11.532;2022-07-17T06:14:58;4.50;;;4.10;;
15679;SDS011;15488;48.114;11.532;2022-07-17T06:17:26;4.00;;;3.60;;
15679;SDS011;15488;48.114;11.532;2022-07-17T06:19:54;4.23;;;3.77;;
15679;SDS011;15488;48.114;11.532;2022-07-17T06:22:21;3.80;;;3.50;;
15679;SDS011;15488;48.114;11.532;2022-07-17T06:24:48;6.57;;;3.87;;
15679;SDS011;15488;48.114;11.532;2022-07-17T06:27:16;5.17;;;3.53;;
15679;SDS011;15488;48.114;11.532;2022-07-17T06:29:43;4.60;;;3.67;;
15679;SDS011;15488;48.114;11.532;2022-07-17T06:32:12;3.93;;;3.53;;
15679;SDS011;15488;48.114;11.532;2022-07-17T06:34:40;3.80;;;3.40;;
15679;SDS011;15488;48.114;11.532;2022-07-17T06:37:07;4.30;;;3.77;;
15679;SDS011;15488;48.114;11.532;2022-07-17T06:39:35;3.50;;;3.20;;
15679;SDS011;15488;48.114;11.532;2022-07-17T06:42:03;3.40;;;3.10;;
15679;SDS011;15488;48.114;11.532;2022-07-17T06:44:30;3.83;;;3.20;;
15679;SDS011;15488;48.114;11.532;2022-07-17T06:46:59;3.60;;;3.30;;
15679;SDS011;15488;48.114;11.532;2022-07-17T06:49:28;3.60;;;3.30;;
15679;SDS011;15488;48.114;11.532;2022-07-17T06:51:55;3.43;;;3.20;;
15679;SDS011;15488;48.114;11.532;2022-07-17T06:54:23;3.10;;;2.90;;
15679;SDS011;15488;48.114;11.532;2022-07-17T06:56:51;3.83;;;3.27;;
15679;SDS011;15488;48.114;11.532;2022-07-17T06:59:18;5.63;;;5.00;;
15679;SDS011;15488;48.114;11.532;2022-07-17T07:01:46;5.73;;;5.23;;
15679;SDS011;15488;48.114;11.532;2022-07-17T07:04:14;4.60;;;4.20;;
15679;SDS011;15488;48.114;11.532;2022-07-17T07:06:43;4.00;;;3.60;;
15679;SDS011;15488;48.114;11.532;2022-07-17T07:09:11;4.97;;;3.30;;
15679;SDS011;15488;48.114;11.532;2022-07-17T07:11:38;3.60;;;3.30;;
15679;SDS011;15488;48.114;11.532;2022-07-17T07:14:06;3.30;;;3.00;;
15679;SDS011;15488;48.114;11.532;2022-07-17T07:16:34;3.03;;;2.83;;
15679;SDS011;15488;48.114;11.532;2022-07-17T07:19:01;3.30;;;3.00;;
15679;SDS011;15488;48.114;11.532;2022-07-17T07:21:29;3.43;;;3.13;;
15679;SDS011;15488;48.114;11.532;2022-07-17T07:23:58;3.33;;;3.00;;
15679;SDS011;15488;48.114;11.532;2022-07-17T07:26:25;3.60;;;3.03;;
15679;SDS011;15488;48.114;11.532;2022-07-17T07:28:53;3.20;;;2.90;;
15679;SDS011;15488;48.114;11.532;2022-07-17T07:31:20;3.80;;;3.40;;
15679;SDS011;15488;48.114;11.532;2022-07-17T07:33:47;3.40;;;3.10;;
15679;SDS011;15488;48.114;11.532;2022-07-17T07:36:15;4.03;;;3.10;;
15679;SDS011;15488;48.114;11.532;2022-07-17T07:38:42;3.30;;;3.00;;
15679;SDS011;15488;48.114;11.532;2022-07-17T07:41:12;3.93;;;3.60;;
15679;SDS011;15488;48.114;11.532;2022-07-17T07:43:40;3.30;;;3.00;;
15679;SDS011;15488;48.114;11.532;2022-07-17T07:46:08;3.70;;;2.73;;
15679;SDS011;15488;48.114;11.532;2022-07-17T07:48:35;3.30;;;2.83;;
15679;SDS011;15488;48.114;11.532;2022-07-17T07:51:03;9.53;;;3.10;;
15679;SDS011;15488;48.114;11.532;2022-07-17T07:53:30;3.13;;;2.80;;
15679;SDS011;15488;48.114;11.532;2022-07-17T07:55:58;3.27;;;2.97;;
15679;SDS011;15488;48.114;11.532;2022-07-17T07:58:26;3.50;;;3.07;;
15679;SDS011;15488;48.114;11.532;2022-07-17T08:00:54;3.10;;;2.80;;
15679;SDS011;15488;48.114;11.532;2022-07-17T08:03:22;4.63;;;2.70;;
15679;SDS011;15488;48.114;11.532;2022-07-17T08:05:49;2.70;;;2.50;;
15679;SDS011;15488;48.114;11.532;2022-07-17T08:08:17;2.77;;;2.57;;
15679;SDS011;15488;48.114;11.532;2022-07-17T08:10:44;3.00;;;2.80;;
15679;SDS011;15488;48.114;11.532;2022-07-17T08:13:11;3.03;;;2.83;;
15679;SDS011;15488;48.114;11.532;2022-07-17T08:15:40;4.03;;;2.80;;
15679;SDS011;15488;48.114;11.532;2022-07-17T08:18:08;2.80;;;2.60;;
15679;SDS011;15488;48.114;11.532;2022-07-17T08:20:35;4.00;;;2.77;;
15679;SDS011;15488;48.114;11.532;2022-07-17T08:23:03;3.83;;;2.60;;
15679;SDS011;15488;48.114;11.532;2022-07-17T08:25:30;2.90;;;2.60;;
15679;SDS011;15488;48.114;11.532;2022-07-17T08:27:59;2.70;;;2.50;;
15679;SDS011;15488;48.114;11.532;2022-07-17T08:30:27;2.70;;;2.50;;
15679;SDS011;15488;48.114;11.532;2022-07-17T08:32:58;4.30;;;2.77;;
15679;SDS011;15488;48.114;11.532;2022-07-17T08:35:25;2.77;;;2.57;;
15679;SDS011;15488;48.114;11.532;2022-07-17T08:37:53;2.80;;;2.60;;
15679;SDS011;15488;48.114;11.532;2022-07-17T08:40:21;2.87;;;2.67;;
15679;SDS011;15488;48.114;11.532;2022-07-17T08:42:51;2.87;;;2.63;;
15679;SDS011;15488;48.114;11.532;2022-07-17T08:45:18;3.77;;;3.47;;
15679;SDS011;15488;48.114;11.532;2022-07-17T08:47:46;4.87;;;3.63;;
15679;SDS011;15488;48.114;11.532;2022-07-17T08:50:18;3.93;;;3.63;;
15679;SDS011;15488;48.114;11.532;2022-07-17T08:52:48;3.30;;;3.00;;
15679;SDS011;15488;48.114;11.532;2022-07-17T08:55:16;4.57;;;2.97;;
15679;SDS011;15488;48.114;11.532;2022-07-17T08:57:44;4.60;;;2.67;;
15679;SDS011;15488;48.114;11.532;2022-07-17T09:00:13;3.00;;;2.70;;
15679;SDS011;15488;48.114;11.532;2022-07-17T09:02:52;4.50;;;2.90;;
15679;SDS011;15488;48.114;11.532;2022-07-17T09:05:23;2.90;;;2.70;;
15679;SDS011;15488;48.114;11.532;2022-07-17T09:07:52;3.60;;;2.80;;
15679;SDS011;15488;48.114;11.532;2022-07-17T09:10:29;3.97;;;2.70;;
15679;SDS011;15488;48.114;11.532;2022-07-17T09:12:58;3.10;;;2.90;;
15679;SDS011;15488;48.114;11.532;2022-07-17T09:15:26;3.03;;;2.57;;
15679;SDS011;15488;48.114;11.532;2022-07-17T09:17:54;3.23;;;2.80;;
15679;SDS011;15488;48.114;11.532;2022-07-17T09:20:24;3.63;;;2.70;;
15679;SDS011;15488;48.114;11.532;2022-07-17T09:22:55;3.50;;;3.07;;
15679;SDS011;15488;48.114;11.532;2022-07-17T09:28:14;3.00;;;2.47;;
15679;SDS011;15488;48.114;11.532;2022-07-17T09:30:44;3.20;;;2.77;;
15679;SDS011;15488;48.114;11.532;2022-07-17T09:33:13;3.10;;;2.80;;
15679;SDS011;15488;48.114;11.532;2022-07-17T09:35:47;2.50;;;2.30;;
15679;SDS011;15488;48.114;11.532;2022-07-17T09:38:26;3.00;;;2.80;;
15679;SDS011;15488;48.114;11.532;2022-07-17T09:41:04;2.60;;;2.40;;
15679;SDS011;15488;48.114;11.532;2022-07-17T09:43:38;2.97;;;2.77;;
15679;SDS011;15488;48.114;11.532;2022-07-17T09:46:18;3.92;;;3.63;;
15679;SDS011;15488;48.114;11.532;2022-07-17T09:48:47;4.90;;;4.50;;
15679;SDS011;15488;48.114;11.532;2022-07-17T09:51:18;4.28;;;3.38;;
15679;SDS011;15488;48.114;11.532;2022-07-17T09:53:48;3.22;;;3.00;;
15679;SDS011;15488;48.114;11.532;2022-07-17T09:56:18;3.47;;;3.17;;
15679;SDS011;15488;48.114;11.532;2022-07-17T09:58:54;3.47;;;3.17;;
15679;SDS011;15488;48.114;11.532;2022-07-17T10:01:26;3.53;;;3.22;;
15679;SDS011;15488;48.114;11.532;2022-07-17T10:03:53;3.15;;;2.95;;
15679;SDS011;15488;48.114;11.532;2022-07-17T10:06:22;3.22;;;2.88;;
15679;SDS011;15488;48.114;11.532;2022-07-17T10:08:51;2.63;;;2.45;;
15679;SDS011;15488;48.114;11.532;2022-07-17T10:11:20;2.75;;;2.50;;
15679;SDS011;15488;48.114;11.532;2022-07-17T10:13:49;3.58;;;3.22;;
15679;SDS011;15488;48.114;11.532;2022-07-17T10:16:22;3.10;;;2.90;;
15679;SDS011;15488;48.114;11.532;2022-07-17T10:18:51;4.03;;;3.53;;
15679;SDS011;15488;48.114;11.532;2022-07-17T10:21:20;4.07;;;3.67;;
15679;SDS011;15488;48.114;11.532;2022-07-17T10:26:33;3.42;;;3.13;;
15679;SDS011;15488;48.114;11.532;2022-07-17T10:29:06;3.83;;;2.70;;
15679;SDS011;15488;48.114;11.532;2022-07-17T10:31:36;3.20;;;2.90;;
15679;SDS011;15488;48.114;11.532;2022-07-17T10:34:16;3.55;;;2.70;;
15679;SDS011;15488;48.114;11.532;2022-07-17T10:36:45;2.83;;;2.63;;
15679;SDS011;15488;48.114;11.532;2022-07-17T10:39:13;2.83;;;2.63;;
15679;SDS011;15488;48.114;11.532;2022-07-17T10:41:43;4.10;;;2.60;;
15679;SDS011;15488;48.114;11.532;2022-07-17T10:44:23;4.78;;;3.00;;
15679;SDS011;15488;48.114;11.532;2022-07-17T10:46:52;3.13;;;2.83;;
15679;SDS011;15488;48.114;11.532;2022-07-17T10:49:19;5.25;;;4.68;;
15679;SDS011;15488;48.114;11.532;2022-07-17T10:51:49;6.35;;;4.80;;
15679;SDS011;15488;48.114;11.532;2022-07-17T10:54:17;7.80;;;4.70;;
15679;SDS011;15488;48.114;11.532;2022-07-17T10:56:44;5.53;;;4.13;;
15679;SDS011;15488;48.114;11.532;2022-07-17T10:59:12;4.78;;;3.83;;
15679;SDS011;15488;48.114;11.532;2022-07-17T11:01:40;4.00;;;3.30;;
15679;SDS011;15488;48.114;11.532;2022-07-17T11:04:21;6.30;;;3.60;;
15679;SDS011;15488;48.114;11.532;2022-07-17T11:06:50;3.92;;;3.00;;
15679;SDS011;15488;48.114;11.532;2022-07-17T11:09:19;2.83;;;2.58;;
15679;SDS011;15488;48.114;11.532;2022-07-17T11:11:49;4.05;;;3.03;;
15679;SDS011;15488;48.114;11.532;2022-07-17T11:14:18;3.17;;;2.88;;
15679;SDS011;15488;48.114;11.532;2022-07-17T11:16:47;4.05;;;2.70;;
15679;SDS011;15488;48.114;11.532;2022-07-17T11:19:22;2.70;;;2.50;;
15679;SDS011;15488;48.114;11.532;2022-07-17T11:21:53;4.07;;;2.67;;
15679;SDS011;15488;48.114;11.532;2022-07-17T11:24:22;3.47;;;2.60;;
15679;SDS011;15488;48.114;11.532;2022-07-17T11:26:51;3.30;;;3.00;;
15679;SDS011;15488;48.114;11.532;2022-07-17T11:29:19;4.38;;;3.88;;
15679;SDS011;15488;48.114;11.532;2022-07-17T11:31:46;3.08;;;2.80;;
15679;SDS011;15488;48.114;11.532;2022-07-17T11:34:20;2.70;;;2.50;;
15679;SDS011;15488;48.114;11.532;2022-07-17T11:36:51;2.63;;;2.42;;
15679;SDS011;15488;48.114;11.532;2022-07-17T11:39:35;3.13;;;2.40;;
15679;SDS011;15488;48.114;11.532;2022-07-17T11:42:04;2.80;;;2.60;;
15679;SDS011;15488;48.114;11.532;2022-07-17T11:44:34;2.75;;;2.55;;
15679;SDS011;15488;48.114;11.532;2022-07-17T11:47:02;3.00;;;2.67;;
15679;SDS011;15488;48.114;11.532;2022-07-17T11:49:31;3.22;;;2.90;;
15679;SDS011;15488;48.114;11.532;2022-07-17T11:52:06;2.97;;;2.60;;
15679;SDS011;15488;48.114;11.532;2022-07-17T11:54:43;3.00;;;2.40;;
15679;SDS011;15488;48.114;11.532;2022-07-17T11:57:11;2.60;;;2.40;;
15679;SDS011;15488;48.114;11.532;2022-07-17T11:59:40;2.50;;;2.30;;
15679;SDS011;15488;48.114;11.532;2022-07-17T12:02:08;2.97;;;2.58;;
15679;SDS011;15488;48.114;11.532;2022-07-17T12:04:47;2.88;;;2.50;;
15679;SDS011;15488;48.114;11.532;2022-07-17T12:07:18;2.30;;;2.20;;
15679;SDS011;15488;48.114;11.532;2022-07-17T12:09:46;2.63;;;2.42;;
15679;SDS011;15488;48.114;11.532;2022-07-17T12:12:19;2.60;;;2.40;;
15679;SDS011;15488;48.114;11.532;2022-07-17T12:14:49;2.45;;;2.25;;
15679;SDS011;15488;48.114;11.532;2022-07-17T12:17:18;2.92;;;2.72;;
15679;SDS011;15488;48.114;11.532;2022-07-17T12:19:45;2.83;;;2.63;;
15679;SDS011;15488;48.114;11.532;2022-07-17T12:22:13;2.90;;;2.70;;
15679;SDS011;15488;48.114;11.532;2022-07-17T12:24:42;3.90;;;2.60;;
15679;SDS011;15488;48.114;11.532;2022-07-17T12:27:12;2.60;;;2.40;;
15679;SDS011;15488;48.114;11.532;2022-07-17T12:29:41;2.70;;;2.50;;
15679;SDS011;15488;48.114;11.532;2022-07-17T12:32:10;3.13;;;2.92;;
15679;SDS011;15488;48.114;11.532;2022-07-17T12:34:38;2.95;;;2.70;;
15679;SDS011;15488;48.114;11.532;2022-07-17T12:37:10;3.58;;;3.38;;
15679;SDS011;15488;48.114;11.532;2022-07-17T12:39:38;3.25;;;3.05;;
15679;SDS011;15488;48.114;11.532;2022-07-17T12:42:06;3.42;;;2.90;;
15679;SDS011;15488;48.114;11.532;2022-07-17T12:44:34;3.10;;;2.90;;
15679;SDS011;15488;48.114;11.532;2022-07-17T12:47:02;2.90;;;2.60;;
15679;SDS011;15488;48.114;11.532;2022-07-17T12:49:29;3.10;;;2.80;;
15679;SDS011;15488;48.114;11.532;2022-07-17T12:51:57;3.40;;;2.85;;
15679;SDS011;15488;48.114;11.532;2022-07-17T12:54:25;2.85;;;2.65;;
15679;SDS011;15488;48.114;11.532;2022-07-17T12:56:52;3.90;;;3.58;;
15679;SDS011;15488;48.114;11.532;2022-07-17T12:59:21;4.55;;;4.20;;
15679;SDS011;15488;48.114;11.532;2022-07-17T13:01:49;6.07;;;5.57;;
15679;SDS011;15488;48.114;11.532;2022-07-17T13:04:16;3.22;;;3.00;;
15679;SDS011;15488;48.114;11.532;2022-07-17T13:06:45;5.32;;;4.93;;
15679;SDS011;15488;48.114;11.532;2022-07-17T13:09:13;4.88;;;4.57;;
15679;SDS011;15488;48.114;11.532;2022-07-17T13:11:41;3.90;;;3.60;;
15679;SDS011;15488;48.114;11.532;2022-07-17T13:14:09;4.07;;;3.78;;
15679;SDS011;15488;48.114;11.532;2022-07-17T13:16:38;3.42;;;3.13;;
15679;SDS011;15488;48.114;11.532;2022-07-17T13:19:06;2.97;;;2.78;;
15679;SDS011;15488;48.114;11.532;2022-07-17T13:21:34;3.50;;;3.25;;
15679;SDS011;15488;48.114;11.532;2022-07-17T13:24:02;4.55;;;4.15;;
15679;SDS011;15488;48.114;11.532;2022-07-17T13:26:31;3.10;;;2.90;;
15679;SDS011;15488;48.114;11.532;2022-07-17T13:28:58;3.20;;;2.80;;
15679;SDS011;15488;48.114;11.532;2022-07-17T13:31:26;4.60;;;4.30;;
15679;SDS011;15488;48.114;11.532;2022-07-17T13:33:55;4.68;;;4.28;;
15679;SDS011;15488;48.114;11.532;2022-07-17T13:36:22;3.95;;;3.38;;
15679;SDS011;15488;48.114;11.532;2022-07-17T13:38:50;3.17;;;2.97;;
15679;SDS011;15488;48.114;11.532;2022-07-17T13:41:17;4.05;;;3.08;;
15679;SDS011;15488;48.114;11.532;2022-07-17T13:43:44;3.70;;;3.50;;
15679;SDS011;15488;48.114;11.532;2022-07-17T13:46:12;4.18;;;3.97;;
15679;SDS011;15488;48.114;11.532;2022-07-17T13:48:39;4.35;;;4.05;;
15679;SDS011;15488;48.114;11.532;2022-07-17T13:51:08;5.03;;;4.82;;
15679;SDS011;15488;48.114;11.532;2022-07-17T13:53:37;4.53;;;4.32;;
15679;SDS011;15488;48.114;11.532;2022-07-17T13:56:05;4.55;;;4.35;;
15679;SDS011;15488;48.114;11.532;2022-07-17T13:58:33;4.53;;;4.32;;
15679;SDS011;15488;48.114;11.532;2022-07-17T14:01:00;5.15;;;4.85;;
15679;SDS011;15488;48.114;11.532;2022-07-17T14:03:28;5.55;;;5.25;;
15679;SDS011;15488;48.114;11.532;2022-07-17T14:05:56;5.88;;;5.68;;
15679;SDS011;15488;48.114;11.532;2022-07-17T14:08:25;6.43;;;6.13;;
15679;SDS011;15488;48.114;11.532;2022-07-17T14:10:52;7.30;;;6.90;;
15679;SDS011;15488;48.114;11.532;2022-07-17T14:13:20;9.57;;;7.72;;
15679;SDS011;15488;48.114;11.532;2022-07-17T14:15:47;7.20;;;6.90;;
15679;SDS011;15488;48.114;11.532;2022-07-17T14:18:15;9.73;;;9.27;;
15679;SDS011;15488;48.114;11.532;2022-07-17T14:20:42;9.18;;;8.77;;
15679;SDS011;15488;48.114;11.532;2022-07-17T14:23:10;9.20;;;8.80;;
15679;SDS011;15488;48.114;11.532;2022-07-17T14:25:39;10.27;;;9.88;;
15679;SDS011;15488;48.114;11.532;2022-07-17T14:28:07;10.40;;;10.00;;
15679;SDS011;15488;48.114;11.532;2022-07-17T14:30:34;10.48;;;9.98;;
15679;SDS011;15488;48.114;11.532;2022-07-17T14:33:02;11.40;;;10.90;;
15679;SDS011;15488;48.114;11.532;2022-07-17T14:35:29;10.65;;;10.15;;
15679;SDS011;15488;48.114;11.532;2022-07-17T14:37:57;12.38;;;11.77;;
15679;SDS011;15488;48.114;11.532;2022-07-17T14:40:25;11.43;;;10.93;;
15679;SDS011;15488;48.114;11.532;2022-07-17T14:42:54;13.95;;;13.35;;
15679;SDS011;15488;48.114;11.532;2022-07-17T14:45:21;15.93;;;15.23;;